Time;durP1;ratioP1;P1;durP2;ratioP2;P2;SDS_P1;SDS_P2;PMS_P1;PMS_P2;Temp;Humidity;BMP_temperature;BMP_pressure;BME280_temperature;BME280_humidity;BME280_pressure;Samples;Min_cycle;Max_cycle;Signal;HPM_P1;HPM_P2
2021/08/20 00:02:08;;;;;;;8.27;3.13;;;;;;;;;;6126748;23;20002;-68
2021/08/20 00:04:35;;;;;;;5.38;2.67;;;;;;;;;;6127292;23;20014;-68
2021/08/20 00:07:02;;;;;;;4.53;3.00;;;;;;;;;;6101948;23;20033;-67
2021/08/20 00:09:28;;;;;;;10.65;3.03;;;;;;;;;;6101799;23;20020;-67
2021/08/20 00:11:54;;;;;;;5.63;3.17;;;;;;;;;;6127734;23;20047;-68
2021/08/20 00:14:20;;;;;;;7.72;3.22;;;;;;;;;;6127693;23;20005;-66
2021/08/20 00:16:47;;;;;;;8.60;3.15;;;;;;;;;;6127174;23;20335;-67
2021/08/20 00:19:13;;;;;;;8.02;3.35;;;;;;;;;;6127710;23;20033;-68
2021/08/20 00:21:40;;;;;;;10.75;3.70;;;;;;;;;;6127475;23;20002;-67
2021/08/20 00:24:06;;;;;;;13.43;3.72;;;;;;;;;;6127514;23;20106;-66
2021/08/20 00:26:32;;;;;;;8.88;3.67;;;;;;;;;;6101401;23;20010;-67
2021/08/20 00:28:58;;;;;;;10.35;4.50;;;;;;;;;;6127498;23;20032;-67
2021/08/20 00:31:24;;;;;;;11.00;3.80;;;;;;;;;;6127339;23;19998;-68
2021/08/20 00:33:50;;;;;;;9.85;4.00;;;;;;;;;;6127430;23;20009;-68
2021/08/20 00:36:16;;;;;;;12.88;4.47;;;;;;;;;;6127252;23;19998;-68
2021/08/20 00:38:42;;;;;;;7.90;3.40;;;;;;;;;;6127390;23;20010;-68
2021/08/20 00:41:12;;;;;;;11.00;3.25;;;;;;;;;;6101953;23;20005;-67
2021/08/20 00:43:40;;;;;;;7.97;3.25;;;;;;;;;;6127170;23;20004;-68
2021/08/20 00:46:07;;;;;;;6.47;3.60;;;;;;;;;;6127304;23;20001;-67
2021/08/20 00:48:33;;;;;;;8.60;4.07;;;;;;;;;;6127091;23;20008;-68
2021/08/20 00:51:04;;;;;;;6.25;3.30;;;;;;;;;;6127624;23;19998;-67
2021/08/20 00:53:30;;;;;;;9.98;3.72;;;;;;;;;;6127365;23;19998;-68
2021/08/20 00:55:56;;;;;;;5.88;3.15;;;;;;;;;;6127283;23;20339;-66
2021/08/20 00:58:22;;;;;;;9.10;3.58;;;;;;;;;;6126910;23;20013;-67
2021/08/20 01:00:48;;;;;;;8.43;3.40;;;;;;;;;;6127096;23;20069;-68
2021/08/20 01:03:14;;;;;;;4.75;3.47;;;;;;;;;;6127208;23;19994;-67
2021/08/20 01:05:40;;;;;;;9.98;3.55;;;;;;;;;;6126800;23;20089;-67
2021/08/20 01:08:06;;;;;;;10.88;3.67;;;;;;;;;;6127071;23;20032;-67
2021/08/20 01:10:32;;;;;;;7.50;3.30;;;;;;;;;;6126945;23;20454;-66
2021/08/20 01:12:58;;;;;;;10.10;3.30;;;;;;;;;;6126481;23;19998;-68
2021/08/20 01:15:24;;;;;;;7.90;3.13;;;;;;;;;;6101296;23;20021;-68
2021/08/20 01:17:50;;;;;;;14.65;3.65;;;;;;;;;;6126910;23;20458;-68
2021/08/20 01:20:17;;;;;;;8.02;3.60;;;;;;;;;;6126837;23;20002;-68
2021/08/20 01:22:43;;;;;;;8.00;2.97;;;;;;;;;;6126947;23;20009;-68
2021/08/20 01:25:10;;;;;;;5.72;3.53;;;;;;;;;;6126981;23;20454;-67
2021/08/20 01:27:36;;;;;;;5.75;3.03;;;;;;;;;;6126720;23;20025;-68
2021/08/20 01:30:04;;;;;;;4.95;3.10;;;;;;;;;;6126785;23;20435;-66
2021/08/20 01:32:30;;;;;;;9.55;3.13;;;;;;;;;;6126916;23;19998;-68
2021/08/20 01:34:56;;;;;;;5.43;3.60;;;;;;;;;;6127080;23;20034;-67
2021/08/20 01:37:22;;;;;;;7.40;3.25;;;;;;;;;;6126868;23;20320;-67
2021/08/20 01:39:48;;;;;;;6.40;3.65;;;;;;;;;;6126769;23;19994;-68
2021/08/20 01:42:14;;;;;;;8.38;3.30;;;;;;;;;;6126519;23;20002;-67
2021/08/20 01:44:41;;;;;;;6.82;3.30;;;;;;;;;;6126723;23;20462;-67
2021/08/20 01:47:11;;;;;;;5.63;2.67;;;;;;;;;;6127103;23;20002;-68
2021/08/20 01:49:38;;;;;;;8.98;3.10;;;;;;;;;;6126761;23;20297;-68
2021/08/20 01:52:04;;;;;;;5.28;2.63;;;;;;;;;;6100807;23;19994;-68
2021/08/20 01:54:30;;;;;;;6.32;3.28;;;;;;;;;;6126760;23;20068;-67
2021/08/20 01:56:56;;;;;;;6.13;3.30;;;;;;;;;;6126460;23;20514;-67
2021/08/20 01:59:22;;;;;;;7.63;3.15;;;;;;;;;;6126775;23;20443;-67
2021/08/20 02:01:48;;;;;;;7.78;3.70;;;;;;;;;;6126659;23;19998;-66
2021/08/20 02:04:14;;;;;;;7.70;2.95;;;;;;;;;;6125817;23;19997;-67
2021/08/20 02:06:40;;;;;;;8.75;3.67;;;;;;;;;;6126454;23;19998;-68
2021/08/20 02:09:06;;;;;;;6.63;3.83;;;;;;;;;;6126708;23;19994;-67
2021/08/20 02:11:33;;;;;;;7.55;3.03;;;;;;;;;;6126373;23;20002;-67
2021/08/20 02:13:58;;;;;;;6.68;3.25;;;;;;;;;;6126708;23;20010;-69
2021/08/20 02:16:24;;;;;;;7.07;3.03;;;;;;;;;;6126435;23;20083;-68
2021/08/20 02:18:50;;;;;;;6.60;2.80;;;;;;;;;;6126586;23;20002;-68
2021/08/20 02:21:16;;;;;;;7.40;3.10;;;;;;;;;;6126629;23;19998;-67
2021/08/20 02:23:42;;;;;;;6.97;3.30;;;;;;;;;;6126162;23;20057;-68
2021/08/20 02:26:08;;;;;;;5.38;2.80;;;;;;;;;;6126124;23;20352;-66
2021/08/20 02:28:34;;;;;;;5.40;2.90;;;;;;;;;;6126108;23;19998;-67
2021/08/20 02:31:00;;;;;;;4.57;2.95;;;;;;;;;;6126541;23;20005;-67
2021/08/20 02:33:25;;;;;;;6.57;3.15;;;;;;;;;;6126520;23;20096;-68
2021/08/20 02:35:51;;;;;;;8.50;2.60;;;;;;;;;;6126415;23;20320;-67
2021/08/20 02:38:19;;;;;;;6.05;3.58;;;;;;;;;;6126137;23;20312;-68
2021/08/20 02:40:45;;;;;;;5.63;3.17;;;;;;;;;;6125978;23;20084;-66
2021/08/20 02:43:10;;;;;;;5.90;2.97;;;;;;;;;;6126597;23;20380;-67
2021/08/20 02:45:37;;;;;;;6.10;2.92;;;;;;;;;;6126085;23;19998;-68
2021/08/20 02:48:03;;;;;;;4.80;3.45;;;;;;;;;;6126036;23;20049;-68
2021/08/20 02:50:29;;;;;;;5.50;3.30;;;;;;;;;;6126318;23;19997;-66
2021/08/20 02:52:55;;;;;;;9.45;3.67;;;;;;;;;;6126168;23;19995;-68
2021/08/20 02:55:21;;;;;;;5.13;3.13;;;;;;;;;;6126330;23;19989;-67
2021/08/20 02:57:47;;;;;;;4.05;3.00;;;;;;;;;;6125973;23;20010;-68
2021/08/20 03:00:14;;;;;;;5.57;2.83;;;;;;;;;;6125844;23;20069;-68
2021/08/20 03:02:40;;;;;;;7.25;3.20;;;;;;;;;;6125852;23;19994;-67
2021/08/20 03:05:06;;;;;;;5.07;3.67;;;;;;;;;;6126172;23;20021;-68
2021/08/20 03:07:32;;;;;;;7.10;3.63;;;;;;;;;;6125939;23;20477;-68
2021/08/20 03:09:58;;;;;;;9.85;3.72;;;;;;;;;;6126219;23;19998;-68
2021/08/20 03:12:25;;;;;;;8.02;3.58;;;;;;;;;;6125985;23;20048;-68
2021/08/20 03:14:50;;;;;;;8.82;3.67;;;;;;;;;;6126301;23;20002;-69
2021/08/20 03:17:16;;;;;;;10.20;3.67;;;;;;;;;;6125997;23;20359;-68
2021/08/20 03:19:43;;;;;;;7.70;3.60;;;;;;;;;;6125760;23;19998;-67
2021/08/20 03:22:09;;;;;;;7.30;3.67;;;;;;;;;;6125802;23;20008;-68
2021/08/20 03:24:35;;;;;;;10.73;3.78;;;;;;;;;;6125895;23;20453;-68
2021/08/20 03:27:01;;;;;;;8.32;3.55;;;;;;;;;;6126055;23;20085;-67
2021/08/20 03:29:27;;;;;;;7.30;4.88;;;;;;;;;;6125940;23;20001;-67
2021/08/20 03:31:54;;;;;;;8.75;4.35;;;;;;;;;;6125985;23;20013;-66
2021/08/20 03:34:27;;;;;;;8.45;3.90;;;;;;;;;;6125832;23;20335;-68
2021/08/20 03:36:54;;;;;;;7.15;3.72;;;;;;;;;;6125530;23;20010;-68
2021/08/20 03:39:19;;;;;;;7.90;3.33;;;;;;;;;;6125798;23;19994;-68
2021/08/20 03:41:45;;;;;;;7.85;3.75;;;;;;;;;;6125998;23;20059;-68
2021/08/20 03:44:11;;;;;;;9.45;3.90;;;;;;;;;;6125586;23;19998;-68
2021/08/20 03:46:37;;;;;;;10.15;3.90;;;;;;;;;;6125816;23;20092;-68
2021/08/20 03:49:03;;;;;;;8.10;3.78;;;;;;;;;;6125876;23;20002;-68
2021/08/20 03:51:29;;;;;;;9.20;3.92;;;;;;;;;;6099738;23;20024;-69
2021/08/20 03:53:56;;;;;;;7.18;3.55;;;;;;;;;;6125579;23;20029;-67
2021/08/20 03:56:22;;;;;;;10.02;4.35;;;;;;;;;;6125661;23;20075;-68
2021/08/20 03:58:47;;;;;;;9.48;4.65;;;;;;;;;;6125593;23;20021;-69
2021/08/20 04:01:12;;;;;;;9.25;4.47;;;;;;;;;;6125660;23;20001;-68
2021/08/20 04:03:38;;;;;;;8.68;4.10;;;;;;;;;;6125537;23;19994;-69
2021/08/20 04:06:07;;;;;;;7.07;3.92;;;;;;;;;;6125400;23;20014;-69
2021/08/20 04:08:32;;;;;;;5.32;3.75;;;;;;;;;;6125543;23;20383;-69
2021/08/20 04:10:58;;;;;;;6.70;4.00;;;;;;;;;;6125587;23;20001;-68
2021/08/20 04:13:23;;;;;;;6.70;3.85;;;;;;;;;;6125639;23;20427;-68
2021/08/20 04:15:48;;;;;;;7.45;4.45;;;;;;;;;;6125645;23;20323;-68
2021/08/20 04:18:14;;;;;;;9.77;4.32;;;;;;;;;;6125512;23;20010;-68
2021/08/20 04:20:39;;;;;;;9.15;4.85;;;;;;;;;;6125569;23;20000;-68
2021/08/20 04:23:05;;;;;;;16.25;4.97;;;;;;;;;;6125962;23;20034;-69
2021/08/20 04:25:31;;;;;;;7.20;4.60;;;;;;;;;;6125856;23;20101;-69
2021/08/20 04:27:56;;;;;;;8.25;4.03;;;;;;;;;;6125736;23;20435;-69
2021/08/20 04:30:22;;;;;;;6.68;4.38;;;;;;;;;;6125476;23;20034;-68
2021/08/20 04:32:48;;;;;;;9.82;4.65;;;;;;;;;;6125881;23;20002;-68
2021/08/20 04:35:13;;;;;;;7.28;4.32;;;;;;;;;;6125741;23;19998;-69
2021/08/20 04:37:39;;;;;;;9.80;4.28;;;;;;;;;;6125373;23;20005;-67
2021/08/20 04:40:05;;;;;;;6.57;3.88;;;;;;;;;;6125173;23;19994;-69
2021/08/20 04:42:30;;;;;;;8.55;4.88;;;;;;;;;;6125630;23;19998;-69
2021/08/20 04:44:56;;;;;;;7.95;4.47;;;;;;;;;;6125590;23;20056;-68
2021/08/20 04:47:21;;;;;;;7.38;4.57;;;;;;;;;;6126168;23;20021;-68
2021/08/20 04:49:46;;;;;;;9.52;4.82;;;;;;;;;;6127247;23;20005;-69
2021/08/20 04:52:14;;;;;;;10.55;5.10;;;;;;;;;;6127343;23;20001;-68
2021/08/20 04:54:40;;;;;;;19.33;5.35;;;;;;;;;;6127125;23;20359;-69
2021/08/20 04:57:05;;;;;;;13.93;5.05;;;;;;;;;;6127448;23;20085;-69
2021/08/20 04:59:31;;;;;;;14.02;5.15;;;;;;;;;;6127254;23;20006;-69
2021/08/20 05:01:56;;;;;;;11.23;4.35;;;;;;;;;;6127346;23;19994;-69
2021/08/20 05:04:21;;;;;;;8.30;4.32;;;;;;;;;;6126748;23;20006;-68
2021/08/20 05:06:47;;;;;;;5.88;3.35;;;;;;;;;;6127077;23;20009;-69
2021/08/20 05:09:13;;;;;;;7.30;4.05;;;;;;;;;;6126921;23;20316;-67
2021/08/20 05:11:39;;;;;;;6.55;3.65;;;;;;;;;;6127056;23;20440;-68
2021/08/20 05:14:04;;;;;;;9.77;4.00;;;;;;;;;;6127005;23;20077;-69
2021/08/20 05:16:30;;;;;;;7.20;3.95;;;;;;;;;;6126962;23;20030;-68
2021/08/20 05:18:55;;;;;;;8.50;3.78;;;;;;;;;;6127057;23;20084;-67
2021/08/20 05:21:22;;;;;;;18.45;7.22;;;;;;;;;;6127192;23;19994;-71
2021/08/20 05:23:47;;;;;;;16.40;9.90;;;;;;;;;;6127127;23;20009;-70
2021/08/20 05:26:13;;;;;;;18.42;10.73;;;;;;;;;;6126815;23;20428;-68
2021/08/20 05:28:38;;;;;;;16.85;9.73;;;;;;;;;;6126846;23;20001;-68
2021/08/20 05:31:03;;;;;;;20.40;12.48;;;;;;;;;;6101239;23;20013;-70
2021/08/20 05:33:29;;;;;;;17.45;11.30;;;;;;;;;;6126987;23;20013;-70
2021/08/20 05:35:55;;;;;;;22.98;12.23;;;;;;;;;;6126927;23;20001;-70
2021/08/20 05:38:20;;;;;;;20.15;12.07;;;;;;;;;;6126395;23;20466;-69
2021/08/20 05:40:46;;;;;;;20.98;12.63;;;;;;;;;;6126530;23;20428;-70
2021/08/20 05:43:11;;;;;;;17.10;11.75;;;;;;;;;;6126937;23;20072;-69
2021/08/20 05:45:37;;;;;;;17.70;10.40;;;;;;;;;;6126704;23;20041;-68
2021/08/20 05:48:07;;;;;;;13.82;8.25;;;;;;;;;;6126625;23;20005;-67
2021/08/20 05:50:33;;;;;;;10.43;6.90;;;;;;;;;;6126838;23;19998;-67
2021/08/20 05:52:58;;;;;;;9.43;5.07;;;;;;;;;;6126769;23;19998;-70
2021/08/20 05:55:25;;;;;;;7.75;3.70;;;;;;;;;;6126966;23;20312;-70
2021/08/20 05:57:51;;;;;;;5.22;3.60;;;;;;;;;;6125865;23;20020;-70
2021/08/20 06:00:16;;;;;;;6.72;3.00;;;;;;;;;;6126126;23;20428;-69
2021/08/20 06:02:42;;;;;;;4.82;2.88;;;;;;;;;;6126528;23;19998;-69
2021/08/20 06:05:07;;;;;;;5.57;3.00;;;;;;;;;;6100711;23;20021;-70
2021/08/20 06:07:33;;;;;;;3.95;2.55;;;;;;;;;;6126659;23;19998;-69
2021/08/20 06:09:58;;;;;;;2.92;2.28;;;;;;;;;;6126180;23;20048;-68
2021/08/20 06:12:24;;;;;;;3.50;2.35;;;;;;;;;;6126838;23;20006;-68
2021/08/20 06:14:49;;;;;;;4.85;2.53;;;;;;;;;;6126657;23;20002;-70
2021/08/20 06:17:15;;;;;;;3.80;2.40;;;;;;;;;;6126501;23;20006;-70
2021/08/20 06:19:40;;;;;;;2.72;2.22;;;;;;;;;;6126284;23;20378;-67
2021/08/20 06:22:05;;;;;;;4.05;2.60;;;;;;;;;;6126232;23;20005;-70
2021/08/20 06:24:31;;;;;;;5.22;2.33;;;;;;;;;;6126166;23;20002;-70
2021/08/20 06:26:56;;;;;;;3.75;2.30;;;;;;;;;;6126433;23;20459;-70
2021/08/20 06:29:22;;;;;;;6.30;2.35;;;;;;;;;;6126292;23;20081;-69
2021/08/20 06:31:47;;;;;;;4.00;2.10;;;;;;;;;;6126246;23;19998;-69
2021/08/20 06:34:13;;;;;;;5.68;2.08;;;;;;;;;;6094238;23;20309;-69
2021/08/20 06:36:38;;;;;;;5.22;2.05;;;;;;;;;;6124242;23;20097;-70
2021/08/20 06:39:04;;;;;;;4.22;2.10;;;;;;;;;;6126160;23;20001;-69
2021/08/20 06:41:29;;;;;;;4.93;2.70;;;;;;;;;;6126447;23;20371;-70
2021/08/20 06:43:54;;;;;;;3.30;2.05;;;;;;;;;;6126179;23;20005;-68
2021/08/20 06:46:20;;;;;;;2.53;1.65;;;;;;;;;;6125932;23;20005;-69
2021/08/20 06:48:45;;;;;;;3.28;2.10;;;;;;;;;;6126117;23;20363;-70
2021/08/20 06:51:14;;;;;;;6.90;2.20;;;;;;;;;;6100419;23;20049;-69
2021/08/20 06:53:40;;;;;;;3.13;1.70;;;;;;;;;;6125994;23;20029;-70
2021/08/20 06:56:05;;;;;;;6.70;2.30;;;;;;;;;;6126203;23;20041;-70
2021/08/20 06:58:31;;;;;;;4.65;1.88;;;;;;;;;;6125948;23;20037;-70
2021/08/20 07:00:56;;;;;;;5.72;2.10;;;;;;;;;;6126190;23;19997;-70
2021/08/20 07:03:22;;;;;;;3.95;1.85;;;;;;;;;;6125844;23;19998;-69
2021/08/20 07:05:47;;;;;;;2.70;1.80;;;;;;;;;;6125771;23;20444;-68
2021/08/20 07:08:12;;;;;;;4.30;1.48;;;;;;;;;;6125895;23;20005;-71
2021/08/20 07:10:38;;;;;;;3.28;1.73;;;;;;;;;;6099391;23;20009;-70
2021/08/20 07:13:03;;;;;;;1.77;1.50;;;;;;;;;;6125915;23;20082;-67
2021/08/20 07:15:29;;;;;;;3.15;1.75;;;;;;;;;;6125935;23;20052;-66
2021/08/20 07:17:54;;;;;;;3.92;1.90;;;;;;;;;;6126003;23;20049;-71
2021/08/20 07:20:19;;;;;;;4.90;2.40;;;;;;;;;;6125908;23;20048;-70
2021/08/20 07:22:45;;;;;;;3.83;2.83;;;;;;;;;;6125653;23;20089;-71
2021/08/20 07:25:10;;;;;;;4.60;3.00;;;;;;;;;;6125817;23;20025;-70
2021/08/20 07:27:36;;;;;;;4.07;2.85;;;;;;;;;;6125866;23;20001;-70
2021/08/20 07:30:01;;;;;;;4.03;2.60;;;;;;;;;;6125626;23;20005;-71
2021/08/20 07:32:27;;;;;;;4.45;2.75;;;;;;;;;;6125825;23;20005;-69
2021/08/20 07:34:52;;;;;;;2.83;2.22;;;;;;;;;;6125767;23;20002;-69
2021/08/20 07:37:17;;;;;;;4.40;2.30;;;;;;;;;;6125731;23;20005;-71
2021/08/20 07:39:43;;;;;;;2.70;2.15;;;;;;;;;;6125532;23;20036;-70
2021/08/20 07:42:08;;;;;;;6.38;2.70;;;;;;;;;;6125477;23;20005;-70
2021/08/20 07:44:34;;;;;;;6.50;2.80;;;;;;;;;;6125850;23;20025;-70
2021/08/20 07:46:59;;;;;;;7.68;4.18;;;;;;;;;;6125729;23;20006;-69
2021/08/20 07:49:25;;;;;;;6.28;3.03;;;;;;;;;;6125636;23;19998;-71
2021/08/20 07:51:50;;;;;;;6.88;3.38;;;;;;;;;;6125578;23;19998;-69
2021/08/20 07:54:16;;;;;;;10.82;4.57;;;;;;;;;;6125464;23;20002;-69
2021/08/20 07:56:41;;;;;;;6.50;3.70;;;;;;;;;;6125396;23;20006;-71
2021/08/20 07:59:13;;;;;;;6.57;3.25;;;;;;;;;;6125868;23;19994;-68
2021/08/20 08:01:39;;;;;;;7.15;2.58;;;;;;;;;;6125557;23;19998;-71
2021/08/20 08:04:04;;;;;;;2.95;2.35;;;;;;;;;;6125204;23;20072;-68
2021/08/20 08:06:29;;;;;;;6.45;2.35;;;;;;;;;;6125524;23;20049;-67
2021/08/20 08:08:55;;;;;;;3.65;2.40;;;;;;;;;;6125488;23;19997;-69
2021/08/20 08:11:20;;;;;;;4.28;2.17;;;;;;;;;;6125941;23;20340;-71
2021/08/20 08:13:46;;;;;;;4.13;1.60;;;;;;;;;;6125560;23;20002;-69
2021/08/20 08:16:11;;;;;;;1.92;1.33;;;;;;;;;;6125265;23;20006;-68
2021/08/20 08:18:36;;;;;;;3.13;1.52;;;;;;;;;;6125453;23;20032;-68
2021/08/20 08:21:02;;;;;;;2.85;1.90;;;;;;;;;;6125574;23;20002;-68
2021/08/20 08:23:28;;;;;;;3.95;1.77;;;;;;;;;;6095281;23;20006;-68
2021/08/20 08:25:53;;;;;;;2.10;1.52;;;;;;;;;;6125572;23;20316;-69
2021/08/20 08:28:22;;;;;;;2.47;1.70;;;;;;;;;;6127201;23;20343;-67
2021/08/20 08:30:49;;;;;;;2.25;1.60;;;;;;;;;;6095680;23;20121;-68
2021/08/20 08:33:15;;;;;;;2.58;1.75;;;;;;;;;;6126250;23;20032;-68
2021/08/20 08:35:40;;;;;;;3.75;2.17;;;;;;;;;;6127305;23;19993;-66
2021/08/20 08:38:07;;;;;;;3.75;2.00;;;;;;;;;;6127114;23;20061;-69
2021/08/20 08:40:33;;;;;;;2.67;1.92;;;;;;;;;;6127075;23;20016;-71
2021/08/20 08:42:59;;;;;;;3.25;1.95;;;;;;;;;;6127156;23;20005;-70
2021/08/20 08:45:25;;;;;;;1.92;1.70;;;;;;;;;;6127319;23;20105;-69
2021/08/20 08:47:52;;;;;;;4.32;2.00;;;;;;;;;;6127360;23;20002;-70
2021/08/20 08:50:18;;;;;;;2.30;1.97;;;;;;;;;;6127155;23;20363;-69
2021/08/20 08:52:43;;;;;;;4.55;2.30;;;;;;;;;;6127003;23;20231;-69
2021/08/20 08:55:09;;;;;;;4.20;2.38;;;;;;;;;;6127042;23;20419;-69
2021/08/20 08:57:35;;;;;;;2.63;1.85;;;;;;;;;;6126952;23;20061;-69
2021/08/20 09:00:00;;;;;;;3.65;2.22;;;;;;;;;;6127101;23;20054;-70
2021/08/20 09:02:26;;;;;;;5.30;2.03;;;;;;;;;;6127157;23;19998;-69
2021/08/20 09:04:56;;;;;;;4.65;1.98;;;;;;;;;;6095262;23;20022;-68
2021/08/20 09:07:23;;;;;;;1.92;1.55;;;;;;;;;;6126409;23;20002;-68
2021/08/20 09:10:07;;;;;;;6.05;2.28;;;;;;;;;;6127136;23;20013;-70
2021/08/20 09:12:33;;;;;;;2.53;1.83;;;;;;;;;;6127134;23;20002;-68
2021/08/20 09:14:59;;;;;;;5.72;2.15;;;;;;;;;;6127129;23;20335;-69
2021/08/20 09:17:35;;;;;;;4.88;2.30;;;;;;;;;;6126926;23;20065;-69
2021/08/20 09:20:13;;;;;;;3.42;1.85;;;;;;;;;;6126759;23;20076;-66
2021/08/20 09:22:38;;;;;;;3.15;2.08;;;;;;;;;;6127038;23;20092;-68
2021/08/20 09:25:03;;;;;;;2.38;1.70;;;;;;;;;;6126957;23;20335;-68
2021/08/20 09:27:29;;;;;;;2.70;1.88;;;;;;;;;;6126880;23;20002;-69
2021/08/20 09:29:55;;;;;;;3.10;1.70;;;;;;;;;;6126906;23;20012;-71
2021/08/20 09:32:21;;;;;;;5.43;1.83;;;;;;;;;;6094945;23;20050;-69
2021/08/20 09:34:48;;;;;;;5.28;2.03;;;;;;;;;;6119332;23;20002;-68
2021/08/20 09:37:13;;;;;;;2.33;1.92;;;;;;;;;;6126940;23;20408;-69
2021/08/20 09:39:45;;;;;;;1.98;1.70;;;;;;;;;;6126741;23;20025;-70
2021/08/20 09:42:12;;;;;;;4.07;1.70;;;;;;;;;;6126647;23;19994;-67
2021/08/20 09:44:37;;;;;;;5.03;1.95;;;;;;;;;;6126818;23;19998;-69
2021/08/20 09:47:03;;;;;;;2.42;1.70;;;;;;;;;;6126885;23;20002;-69
2021/08/20 09:49:29;;;;;;;2.30;1.70;;;;;;;;;;6126532;23;20004;-68
2021/08/20 09:51:54;;;;;;;1.95;1.58;;;;;;;;;;6126641;23;20057;-69
2021/08/20 09:54:25;;;;;;;2.50;2.00;;;;;;;;;;6126606;23;20420;-68
2021/08/20 09:56:51;;;;;;;4.57;1.80;;;;;;;;;;6077693;23;20376;-67
2021/08/20 09:59:17;;;;;;;3.88;1.95;;;;;;;;;;6126749;23;20002;-70
2021/08/20 10:01:43;;;;;;;2.38;1.85;;;;;;;;;;6126410;23;20116;-68
2021/08/20 10:04:10;;;;;;;2.20;1.95;;;;;;;;;;6126033;23;20327;-69
2021/08/20 10:06:36;;;;;;;3.45;2.30;;;;;;;;;;6100731;23;20002;-69
2021/08/20 10:09:03;;;;;;;2.38;1.60;;;;;;;;;;6126644;23;20069;-67
2021/08/20 10:11:29;;;;;;;3.10;1.70;;;;;;;;;;6094593;23;19998;-69
2021/08/20 10:13:58;;;;;;;2.45;1.65;;;;;;;;;;6124878;23;20008;-69
2021/08/20 10:16:24;;;;;;;2.80;1.70;;;;;;;;;;6126430;23;20083;-71
2021/08/20 10:18:49;;;;;;;3.22;1.65;;;;;;;;;;6126189;23;20045;-70
2021/08/20 10:21:15;;;;;;;6.15;1.90;;;;;;;;;;6126566;23;20018;-72
2021/08/20 10:23:41;;;;;;;4.15;1.80;;;;;;;;;;6126616;23;20505;-70
2021/08/20 10:26:08;;;;;;;4.20;2.35;;;;;;;;;;6126279;23;20439;-69
2021/08/20 10:28:34;;;;;;;2.83;2.03;;;;;;;;;;6126585;23;20001;-70
2021/08/20 10:31:01;;;;;;;6.65;2.33;;;;;;;;;;6126348;23;20002;-68
2021/08/20 10:33:32;;;;;;;6.53;2.20;;;;;;;;;;6126077;23;20001;-68
2021/08/20 10:35:57;;;;;;;4.45;2.00;;;;;;;;;;6126640;23;20077;-68
2021/08/20 10:38:30;;;;;;;2.00;1.60;;;;;;;;;;6126042;23;20080;-68
2021/08/20 10:41:14;;;;;;;3.85;2.20;;;;;;;;;;6126425;23;20101;-68
2021/08/20 10:43:47;;;;;;;2.35;1.80;;;;;;;;;;6126003;23;19994;-70
2021/08/20 10:46:38;;;;;;;2.58;1.88;;;;;;;;;;6125963;23;20002;-68
2021/08/20 10:49:19;;;;;;;2.28;1.73;;;;;;;;;;6126163;23;20001;-68
2021/08/20 10:51:57;;;;;;;2.75;2.03;;;;;;;;;;6126079;23;20305;-67
2021/08/20 10:54:40;;;;;;;4.93;2.40;;;;;;;;;;6125163;23;20038;-67
2021/08/20 10:57:06;;;;;;;5.57;2.38;;;;;;;;;;6126191;23;20388;-70
2021/08/20 10:59:50;;;;;;;3.63;2.22;;;;;;;;;;6126435;23;20057;-69
2021/08/20 11:02:25;;;;;;;4.95;2.47;;;;;;;;;;6125717;23;20005;-69
2021/08/20 11:04:58;;;;;;;4.07;2.20;;;;;;;;;;6125944;23;20021;-68
2021/08/20 11:07:42;;;;;;;2.78;2.10;;;;;;;;;;6126047;23;19994;-69
2021/08/20 11:10:15;;;;;;;3.53;2.40;;;;;;;;;;6126209;23;20297;-67
2021/08/20 11:12:42;;;;;;;3.63;1.92;;;;;;;;;;6125867;23;20416;-68
2021/08/20 11:15:27;;;;;;;7.07;2.70;;;;;;;;;;6100143;23;20006;-70
2021/08/20 11:17:54;;;;;;;4.03;2.50;;;;;;;;;;6125766;23;20009;-70
2021/08/20 11:20:23;;;;;;;3.67;2.15;;;;;;;;;;6126167;23;20002;-68
2021/08/20 11:23:07;;;;;;;3.42;2.28;;;;;;;;;;6125862;23;19994;-69
2021/08/20 11:25:58;;;;;;;6.10;2.30;;;;;;;;;;6125596;23;20060;-69
2021/08/20 11:28:25;;;;;;;2.83;2.22;;;;;;;;;;6104552;23;20431;-67
2021/08/20 11:30:59;;;;;;;3.50;2.20;;;;;;;;;;6126060;23;19998;-68
2021/08/20 11:33:29;;;;;;;2.95;2.10;;;;;;;;;;6126127;23;20432;-69
2021/08/20 11:35:55;;;;;;;4.43;2.70;;;;;;;;;;6093893;23;19995;-68
2021/08/20 11:38:29;;;;;;;3.50;2.10;;;;;;;;;;6124317;23;20013;-69
2021/08/20 11:40:58;;;;;;;4.07;2.45;;;;;;;;;;6125663;23;19997;-69
2021/08/20 11:43:24;;;;;;;5.00;2.55;;;;;;;;;;6126119;23;19994;-68
2021/08/20 11:45:52;;;;;;;3.92;2.75;;;;;;;;;;6124273;23;20056;-67
2021/08/20 11:48:17;;;;;;;;;;;;;;;;;;6124372;23;20379;-69
2021/08/20 11:50:45;;;;;;;3.70;2.27;;;;;;;;;;6124436;23;19901;-66
2021/08/20 11:53:10;;;;;;;4.55;2.13;;;;;;;;;;6123865;23;20021;-70
2021/08/20 11:55:35;;;;;;;5.28;2.78;;;;;;;;;;6124296;23;20009;-69
2021/08/20 11:58:01;;;;;;;4.28;2.60;;;;;;;;;;6124827;23;20443;-67
2021/08/20 12:00:39;;;;;;;4.22;2.60;;;;;;;;;;6126265;23;20033;-70
2021/08/20 12:03:05;;;;;;;6.43;2.85;;;;;;;;;;6125643;23;20002;-70
2021/08/20 12:05:30;;;;;;;4.68;2.47;;;;;;;;;;6093945;23;20419;-69
2021/08/20 12:07:56;;;;;;;3.85;2.20;;;;;;;;;;6098454;23;19994;-68
2021/08/20 12:10:21;;;;;;;6.05;2.45;;;;;;;;;;6125892;23;20002;-69
2021/08/20 12:12:47;;;;;;;4.15;2.60;;;;;;;;;;6126922;23;20049;-69
2021/08/20 12:15:13;;;;;;;5.13;2.45;;;;;;;;;;6127828;23;19998;-69
2021/08/20 12:17:39;;;;;;;5.82;2.65;;;;;;;;;;6127804;23;20005;-70
2021/08/20 12:20:23;;;;;;;5.30;2.40;;;;;;;;;;6101453;23;20335;-70
2021/08/20 12:22:50;;;;;;;7.28;2.50;;;;;;;;;;6127644;23;20335;-71
2021/08/20 12:25:20;;;;;;;4.22;2.60;;;;;;;;;;6127663;23;19994;-67
2021/08/20 12:27:46;;;;;;;3.70;2.45;;;;;;;;;;6101666;23;20005;-68
2021/08/20 12:30:15;;;;;;;2.60;2.13;;;;;;;;;;6127529;23;20105;-70
2021/08/20 12:32:42;;;;;;;4.53;2.67;;;;;;;;;;6127331;23;20001;-68
2021/08/20 12:35:20;;;;;;;4.05;2.22;;;;;;;;;;6127431;23;19993;-69
2021/08/20 12:38:04;;;;;;;6.45;2.25;;;;;;;;;;6101384;23;20006;-69
2021/08/20 12:40:33;;;;;;;4.53;2.33;;;;;;;;;;6127388;23;20049;-70
2021/08/20 12:42:59;;;;;;;3.70;2.10;;;;;;;;;;6127385;23;20006;-69
2021/08/20 12:45:24;;;;;;;3.88;2.15;;;;;;;;;;6127435;23;20487;-67
2021/08/20 12:48:00;;;;;;;3.15;2.20;;;;;;;;;;6127325;23;20005;-67
2021/08/20 12:50:25;;;;;;;2.80;2.22;;;;;;;;;;6127566;23;20002;-67
2021/08/20 12:52:59;;;;;;;3.60;2.00;;;;;;;;;;6127539;23;20152;-66
2021/08/20 12:55:26;;;;;;;3.42;2.13;;;;;;;;;;6127161;23;19994;-69
2021/08/20 12:57:52;;;;;;;3.03;2.35;;;;;;;;;;6127153;23;20534;-68
2021/08/20 13:00:18;;;;;;;3.50;2.03;;;;;;;;;;6127428;23;20002;-67
2021/08/20 13:02:43;;;;;;;4.05;2.30;;;;;;;;;;6126914;23;20006;-68
2021/08/20 13:05:09;;;;;;;4.15;2.47;;;;;;;;;;6126942;23;20017;-67
2021/08/20 13:07:34;;;;;;;2.97;2.00;;;;;;;;;;6126935;23;20001;-69
2021/08/20 13:10:00;;;;;;;3.10;2.05;;;;;;;;;;6126662;23;20065;-68
2021/08/20 13:12:26;;;;;;;4.32;2.33;;;;;;;;;;6101050;23;20012;-67
2021/08/20 13:14:52;;;;;;;3.08;2.10;;;;;;;;;;6126967;23;20001;-69
2021/08/20 13:17:18;;;;;;;3.90;2.00;;;;;;;;;;6127178;23;20371;-69
2021/08/20 13:19:43;;;;;;;4.20;2.00;;;;;;;;;;6127037;23;20002;-67
2021/08/20 13:22:09;;;;;;;2.67;2.10;;;;;;;;;;6126818;23;19994;-69
2021/08/20 13:24:34;;;;;;;4.03;2.08;;;;;;;;;;6126865;23;20002;-66
2021/08/20 13:26:59;;;;;;;2.20;1.80;;;;;;;;;;6126746;23;20006;-68
2021/08/20 13:29:25;;;;;;;2.90;2.00;;;;;;;;;;6127173;23;20072;-68
2021/08/20 13:31:50;;;;;;;3.28;1.90;;;;;;;;;;6126995;23;19998;-68
2021/08/20 13:34:15;;;;;;;3.45;2.10;;;;;;;;;;6126687;23;20002;-70
2021/08/20 13:36:41;;;;;;;6.57;2.50;;;;;;;;;;6127169;23;20085;-66
2021/08/20 13:39:06;;;;;;;3.55;1.92;;;;;;;;;;6126883;23;20531;-68
2021/08/20 13:41:33;;;;;;;4.18;2.10;;;;;;;;;;6126424;23;20006;-68
2021/08/20 13:43:59;;;;;;;3.17;2.30;;;;;;;;;;6126651;23;19998;-68
2021/08/20 13:46:25;;;;;;;5.25;2.22;;;;;;;;;;6127361;23;20081;-68
2021/08/20 13:48:52;;;;;;;3.15;2.40;;;;;;;;;;6127026;23;20104;-69
2021/08/20 13:51:18;;;;;;;3.58;2.40;;;;;;;;;;6127258;23;20006;-68
2021/08/20 13:53:44;;;;;;;4.25;2.25;;;;;;;;;;6126529;23;20121;-69
2021/08/20 13:56:09;;;;;;;5.47;2.60;;;;;;;;;;6126383;23;20415;-67
2021/08/20 13:58:34;;;;;;;4.50;2.42;;;;;;;;;;6126877;23;20454;-70
2021/08/20 14:01:00;;;;;;;4.40;2.20;;;;;;;;;;6126581;23;20028;-67
2021/08/20 14:03:25;;;;;;;4.45;2.38;;;;;;;;;;6126491;23;19998;-69
2021/08/20 14:05:50;;;;;;;7.70;3.28;;;;;;;;;;6126215;23;20029;-67
2021/08/20 14:08:16;;;;;;;3.40;2.25;;;;;;;;;;6126618;23;19998;-70
2021/08/20 14:10:41;;;;;;;5.05;2.75;;;;;;;;;;6126376;23;20085;-69
2021/08/20 14:13:07;;;;;;;7.35;2.30;;;;;;;;;;6126469;23;20006;-69
2021/08/20 14:15:32;;;;;;;2.88;2.35;;;;;;;;;;6126417;23;20012;-69
2021/08/20 14:17:58;;;;;;;3.65;2.13;;;;;;;;;;6126460;23;20013;-70
2021/08/20 14:20:23;;;;;;;5.55;2.75;;;;;;;;;;6125923;23;19998;-69
2021/08/20 14:22:48;;;;;;;5.47;2.30;;;;;;;;;;6126523;23;19998;-69
2021/08/20 14:25:14;;;;;;;2.88;2.40;;;;;;;;;;6126357;23;20029;-70
2021/08/20 14:27:39;;;;;;;4.93;2.42;;;;;;;;;;6126342;23;20064;-69
2021/08/20 14:30:06;;;;;;;3.67;2.10;;;;;;;;;;6126145;23;20002;-68
2021/08/20 14:32:31;;;;;;;5.70;2.60;;;;;;;;;;6126337;23;20029;-67
2021/08/20 14:34:56;;;;;;;2.78;2.13;;;;;;;;;;6126293;23;19998;-70
2021/08/20 14:37:22;;;;;;;5.28;2.38;;;;;;;;;;6126575;23;20002;-69
2021/08/20 14:39:48;;;;;;;2.47;1.98;;;;;;;;;;6126611;23;20005;-68